sensor_id;sensor_type;location;lat;lon;timestamp;P1;durP1;ratioP1;P2;durP2;ratioP2
6019;SDS011;3038;51.122;6.840;2023-11-19T00:01:19;4.83;;;4.10;;
6019;SDS011;3038;51.122;6.840;2023-11-19T00:03:44;5.00;;;3.87;;
6019;SDS011;3038;51.122;6.840;2023-11-19T00:06:09;4.10;;;3.57;;
6019;SDS011;3038;51.122;6.840;2023-11-19T00:08:36;5.57;;;3.40;;
6019;SDS011;3038;51.122;6.840;2023-11-19T00:11:01;3.33;;;3.10;;
6019;SDS011;3038;51.122;6.840;2023-11-19T00:13:30;4.13;;;3.20;;
6019;SDS011;3038;51.122;6.840;2023-11-19T00:15:55;3.73;;;3.23;;
6019;SDS011;3038;51.122;6.840;2023-11-19T00:18:24;4.90;;;3.33;;
6019;SDS011;3038;51.122;6.840;2023-11-19T00:20:51;3.37;;;3.10;;
6019;SDS011;3038;51.122;6.840;2023-11-19T00:23:17;3.80;;;2.70;;
6019;SDS011;3038;51.122;6.840;2023-11-19T00:25:42;3.57;;;3.10;;
6019;SDS011;3038;51.122;6.840;2023-11-19T00:28:08;4.40;;;3.53;;
6019;SDS011;3038;51.122;6.840;2023-11-19T00:30:33;4.20;;;3.53;;
6019;SDS011;3038;51.122;6.840;2023-11-19T00:32:58;7.30;;;3.03;;
6019;SDS011;3038;51.122;6.840;2023-11-19T00:35:24;3.47;;;3.17;;
6019;SDS011;3038;51.122;6.840;2023-11-19T00:37:51;3.87;;;3.57;;
6019;SDS011;3038;51.122;6.840;2023-11-19T00:40:18;4.07;;;3.40;;
6019;SDS011;3038;51.122;6.840;2023-11-19T00:42:46;3.10;;;2.80;;
6019;SDS011;3038;51.122;6.840;2023-11-19T00:45:12;3.73;;;3.27;;
6019;SDS011;3038;51.122;6.840;2023-11-19T00:47:38;2.93;;;2.70;;
6019;SDS011;3038;51.122;6.840;2023-11-19T00:50:03;4.27;;;2.70;;
6019;SDS011;3038;51.122;6.840;2023-11-19T00:52:29;3.10;;;2.80;;
6019;SDS011;3038;51.122;6.840;2023-11-19T00:54:54;3.17;;;2.47;;
6019;SDS011;3038;51.122;6.840;2023-11-19T00:57:20;9.73;;;2.30;;
6019;SDS011;3038;51.122;6.840;2023-11-19T00:59:45;2.77;;;2.03;;
6019;SDS011;3038;51.122;6.840;2023-11-19T01:02:12;3.33;;;1.90;;
6019;SDS011;3038;51.122;6.840;2023-11-19T01:04:39;3.40;;;1.43;;
6019;SDS011;3038;51.122;6.840;2023-11-19T01:07:05;1.10;;;0.90;;
6019;SDS011;3038;51.122;6.840;2023-11-19T01:09:41;1.30;;;1.10;;
6019;SDS011;3038;51.122;6.840;2023-11-19T01:12:07;1.70;;;0.70;;
6019;SDS011;3038;51.122;6.840;2023-11-19T01:14:32;1.10;;;1.00;;
6019;SDS011;3038;51.122;6.840;2023-11-19T01:16:58;1.83;;;1.00;;
6019;SDS011;3038;51.122;6.840;2023-11-19T01:19:23;1.67;;;0.80;;
6019;SDS011;3038;51.122;6.840;2023-11-19T01:21:49;0.80;;;0.60;;
6019;SDS011;3038;51.122;6.840;2023-11-19T01:24:15;3.10;;;1.03;;
6019;SDS011;3038;51.122;6.840;2023-11-19T01:26:41;3.13;;;1.20;;
6019;SDS011;3038;51.122;6.840;2023-11-19T01:29:13;2.17;;;1.07;;
6019;SDS011;3038;51.122;6.840;2023-11-19T01:31:40;2.87;;;1.00;;
6019;SDS011;3038;51.122;6.840;2023-11-19T01:34:08;1.13;;;0.90;;
6019;SDS011;3038;51.122;6.840;2023-11-19T01:36:36;2.13;;;0.90;;
6019;SDS011;3038;51.122;6.840;2023-11-19T01:39:02;1.20;;;0.80;;
6019;SDS011;3038;51.122;6.840;2023-11-19T01:41:29;2.30;;;1.40;;
6019;SDS011;3038;51.122;6.840;2023-11-19T01:43:54;2.60;;;1.10;;
6019;SDS011;3038;51.122;6.840;2023-11-19T01:46:19;1.30;;;0.93;;
6019;SDS011;3038;51.122;6.840;2023-11-19T01:48:45;1.33;;;0.80;;
6019;SDS011;3038;51.122;6.840;2023-11-19T01:51:15;4.17;;;1.70;;
6019;SDS011;3038;51.122;6.840;2023-11-19T01:53:44;2.70;;;1.30;;
6019;SDS011;3038;51.122;6.840;2023-11-19T01:56:17;2.20;;;1.30;;
6019;SDS011;3038;51.122;6.840;2023-11-19T01:58:43;1.50;;;1.10;;
6019;SDS011;3038;51.122;6.840;2023-11-19T02:01:12;3.67;;;1.20;;
6019;SDS011;3038;51.122;6.840;2023-11-19T02:03:38;4.27;;;1.80;;
6019;SDS011;3038;51.122;6.840;2023-11-19T02:06:04;3.83;;;1.33;;
6019;SDS011;3038;51.122;6.840;2023-11-19T02:08:30;3.50;;;1.53;;
6019;SDS011;3038;51.122;6.840;2023-11-19T02:10:55;4.20;;;1.43;;
6019;SDS011;3038;51.122;6.840;2023-11-19T02:13:25;3.03;;;1.60;;
6019;SDS011;3038;51.122;6.840;2023-11-19T02:15:51;4.30;;;2.20;;
6019;SDS011;3038;51.122;6.840;2023-11-19T02:18:16;4.70;;;1.90;;
6019;SDS011;3038;51.122;6.840;2023-11-19T02:20:43;5.60;;;2.30;;
6019;SDS011;3038;51.122;6.840;2023-11-19T02:23:08;5.77;;;2.20;;
6019;SDS011;3038;51.122;6.840;2023-11-19T02:25:34;5.53;;;2.10;;
6019;SDS011;3038;51.122;6.840;2023-11-19T02:28:00;3.60;;;2.00;;
6019;SDS011;3038;51.122;6.840;2023-11-19T02:30:27;6.10;;;2.30;;
6019;SDS011;3038;51.122;6.840;2023-11-19T02:32:56;5.70;;;3.20;;
6019;SDS011;3038;51.122;6.840;2023-11-19T02:35:26;10.77;;;3.30;;
6019;SDS011;3038;51.122;6.840;2023-11-19T02:37:51;5.93;;;2.40;;
6019;SDS011;3038;51.122;6.840;2023-11-19T02:40:20;5.80;;;2.60;;
6019;SDS011;3038;51.122;6.840;2023-11-19T02:42:47;5.33;;;2.83;;
6019;SDS011;3038;51.122;6.840;2023-11-19T02:45:13;3.77;;;2.13;;
6019;SDS011;3038;51.122;6.840;2023-11-19T02:47:42;6.50;;;2.37;;
6019;SDS011;3038;51.122;6.840;2023-11-19T02:50:11;6.43;;;2.73;;
6019;SDS011;3038;51.122;6.840;2023-11-19T02:52:43;4.87;;;2.60;;
6019;SDS011;3038;51.122;6.840;2023-11-19T02:55:13;7.60;;;2.77;;
6019;SDS011;3038;51.122;6.840;2023-11-19T02:57:39;8.30;;;3.80;;
6019;SDS011;3038;51.122;6.840;2023-11-19T03:00:16;4.90;;;2.30;;
6019;SDS011;3038;51.122;6.840;2023-11-19T03:03:01;2.60;;;2.13;;
6019;SDS011;3038;51.122;6.840;2023-11-19T03:05:45;5.40;;;2.50;;
6019;SDS011;3038;51.122;6.840;2023-11-19T03:08:11;5.83;;;2.37;;
6019;SDS011;3038;51.122;6.840;2023-11-19T03:10:40;8.10;;;2.73;;
6019;SDS011;3038;51.122;6.840;2023-11-19T03:13:05;9.03;;;3.73;;
6019;SDS011;3038;51.122;6.840;2023-11-19T03:15:30;6.60;;;2.67;;
6019;SDS011;3038;51.122;6.840;2023-11-19T03:17:56;9.70;;;3.43;;
6019;SDS011;3038;51.122;6.840;2023-11-19T03:20:21;10.40;;;3.53;;
6019;SDS011;3038;51.122;6.840;2023-11-19T03:22:48;8.80;;;3.33;;
6019;SDS011;3038;51.122;6.840;2023-11-19T03:25:15;7.47;;;2.90;;
6019;SDS011;3038;51.122;6.840;2023-11-19T03:27:41;9.67;;;3.07;;
6019;SDS011;3038;51.122;6.840;2023-11-19T03:30:09;5.93;;;2.50;;
6019;SDS011;3038;51.122;6.840;2023-11-19T03:32:37;10.30;;;3.03;;
6019;SDS011;3038;51.122;6.840;2023-11-19T03:35:04;9.57;;;2.97;;
6019;SDS011;3038;51.122;6.840;2023-11-19T03:37:32;6.00;;;2.63;;
6019;SDS011;3038;51.122;6.840;2023-11-19T03:40:05;9.60;;;2.90;;
6019;SDS011;3038;51.122;6.840;2023-11-19T03:42:31;7.10;;;2.50;;
6019;SDS011;3038;51.122;6.840;2023-11-19T03:44:56;5.97;;;2.67;;
6019;SDS011;3038;51.122;6.840;2023-11-19T03:47:22;7.97;;;3.30;;
6019;SDS011;3038;51.122;6.840;2023-11-19T03:49:48;4.33;;;2.60;;
6019;SDS011;3038;51.122;6.840;2023-11-19T03:52:14;8.40;;;2.77;;
6019;SDS011;3038;51.122;6.840;2023-11-19T03:54:39;8.27;;;2.93;;
6019;SDS011;3038;51.122;6.840;2023-11-19T03:57:05;9.17;;;3.90;;
6019;SDS011;3038;51.122;6.840;2023-11-19T03:59:30;12.20;;;3.10;;
6019;SDS011;3038;51.122;6.840;2023-11-19T04:01:58;9.17;;;3.80;;
6019;SDS011;3038;51.122;6.840;2023-11-19T04:04:26;15.57;;;4.17;;
6019;SDS011;3038;51.122;6.840;2023-11-19T04:06:52;9.00;;;3.03;;
6019;SDS011;3038;51.122;6.840;2023-11-19T04:09:18;9.20;;;3.13;;
6019;SDS011;3038;51.122;6.840;2023-11-19T04:11:43;10.83;;;5.17;;
6019;SDS011;3038;51.122;6.840;2023-11-19T04:14:11;13.40;;;3.70;;
6019;SDS011;3038;51.122;6.840;2023-11-19T04:16:38;13.77;;;3.37;;
6019;SDS011;3038;51.122;6.840;2023-11-19T04:19:03;8.80;;;3.80;;
6019;SDS011;3038;51.122;6.840;2023-11-19T04:21:28;18.00;;;5.00;;
6019;SDS011;3038;51.122;6.840;2023-11-19T04:23:54;8.53;;;3.37;;
6019;SDS011;3038;51.122;6.840;2023-11-19T04:26:19;9.60;;;3.40;;
6019;SDS011;3038;51.122;6.840;2023-11-19T04:28:45;11.80;;;3.57;;
6019;SDS011;3038;51.122;6.840;2023-11-19T04:31:10;13.20;;;3.70;;
6019;SDS011;3038;51.122;6.840;2023-11-19T04:33:35;9.00;;;2.90;;
6019;SDS011;3038;51.122;6.840;2023-11-19T04:36:01;13.50;;;4.37;;
6019;SDS011;3038;51.122;6.840;2023-11-19T04:38:29;10.00;;;3.00;;
6019;SDS011;3038;51.122;6.840;2023-11-19T04:40:55;13.07;;;4.77;;
6019;SDS011;3038;51.122;6.840;2023-11-19T04:43:22;8.33;;;3.27;;
6019;SDS011;3038;51.122;6.840;2023-11-19T04:45:47;11.33;;;3.63;;
6019;SDS011;3038;51.122;6.840;2023-11-19T04:48:12;12.80;;;3.63;;
6019;SDS011;3038;51.122;6.840;2023-11-19T04:50:38;11.67;;;3.67;;
6019;SDS011;3038;51.122;6.840;2023-11-19T04:53:05;14.07;;;3.20;;
6019;SDS011;3038;51.122;6.840;2023-11-19T04:55:31;11.57;;;2.93;;
6019;SDS011;3038;51.122;6.840;2023-11-19T04:57:56;9.13;;;3.47;;
6019;SDS011;3038;51.122;6.840;2023-11-19T05:00:21;11.13;;;4.17;;
6019;SDS011;3038;51.122;6.840;2023-11-19T05:02:47;16.03;;;4.00;;
6019;SDS011;3038;51.122;6.840;2023-11-19T05:05:12;12.50;;;5.17;;
6019;SDS011;3038;51.122;6.840;2023-11-19T05:07:38;8.27;;;3.10;;
6019;SDS011;3038;51.122;6.840;2023-11-19T05:10:03;9.30;;;3.33;;
6019;SDS011;3038;51.122;6.840;2023-11-19T05:12:33;9.67;;;3.53;;
6019;SDS011;3038;51.122;6.840;2023-11-19T05:14:59;7.90;;;3.33;;
6019;SDS011;3038;51.122;6.840;2023-11-19T05:17:25;11.17;;;3.87;;
6019;SDS011;3038;51.122;6.840;2023-11-19T05:19:50;14.10;;;5.37;;
6019;SDS011;3038;51.122;6.840;2023-11-19T05:22:16;9.87;;;3.40;;
6019;SDS011;3038;51.122;6.840;2023-11-19T05:24:42;8.60;;;3.20;;
6019;SDS011;3038;51.122;6.840;2023-11-19T05:27:07;10.80;;;4.30;;
6019;SDS011;3038;51.122;6.840;2023-11-19T05:29:33;14.33;;;3.90;;
6019;SDS011;3038;51.122;6.840;2023-11-19T05:31:58;9.97;;;4.50;;
6019;SDS011;3038;51.122;6.840;2023-11-19T05:34:24;13.33;;;3.50;;
6019;SDS011;3038;51.122;6.840;2023-11-19T05:36:50;11.70;;;2.80;;
6019;SDS011;3038;51.122;6.840;2023-11-19T05:39:16;15.33;;;3.40;;
6019;SDS011;3038;51.122;6.840;2023-11-19T05:41:41;11.40;;;3.50;;
6019;SDS011;3038;51.122;6.840;2023-11-19T05:44:09;11.73;;;3.83;;
6019;SDS011;3038;51.122;6.840;2023-11-19T05:46:34;14.77;;;3.90;;
6019;SDS011;3038;51.122;6.840;2023-11-19T05:49:05;11.83;;;4.83;;
6019;SDS011;3038;51.122;6.840;2023-11-19T05:51:37;12.50;;;4.10;;
6019;SDS011;3038;51.122;6.840;2023-11-19T05:54:03;13.23;;;4.57;;
6019;SDS011;3038;51.122;6.840;2023-11-19T05:56:31;10.03;;;3.30;;
6019;SDS011;3038;51.122;6.840;2023-11-19T05:58:57;9.30;;;2.97;;
6019;SDS011;3038;51.122;6.840;2023-11-19T06:01:25;10.97;;;3.37;;
6019;SDS011;3038;51.122;6.840;2023-11-19T06:03:50;11.07;;;3.80;;
6019;SDS011;3038;51.122;6.840;2023-11-19T06:06:15;14.13;;;3.20;;
6019;SDS011;3038;51.122;6.840;2023-11-19T06:08:41;10.00;;;3.70;;
6019;SDS011;3038;51.122;6.840;2023-11-19T06:11:06;14.13;;;4.17;;
6019;SDS011;3038;51.122;6.840;2023-11-19T06:13:32;9.57;;;2.50;;
6019;SDS011;3038;51.122;6.840;2023-11-19T06:15:57;18.33;;;4.43;;
6019;SDS011;3038;51.122;6.840;2023-11-19T06:18:23;16.63;;;3.80;;
6019;SDS011;3038;51.122;6.840;2023-11-19T06:20:48;7.53;;;3.50;;
6019;SDS011;3038;51.122;6.840;2023-11-19T06:23:14;5.60;;;2.43;;
6019;SDS011;3038;51.122;6.840;2023-11-19T06:25:40;12.13;;;3.70;;
6019;SDS011;3038;51.122;6.840;2023-11-19T06:28:05;17.00;;;5.03;;
6019;SDS011;3038;51.122;6.840;2023-11-19T06:30:30;14.73;;;4.20;;
6019;SDS011;3038;51.122;6.840;2023-11-19T06:32:57;17.40;;;4.00;;
6019;SDS011;3038;51.122;6.840;2023-11-19T06:35:23;11.73;;;4.90;;
6019;SDS011;3038;51.122;6.840;2023-11-19T06:37:49;15.97;;;4.07;;
6019;SDS011;3038;51.122;6.840;2023-11-19T06:40:14;16.70;;;4.10;;
6019;SDS011;3038;51.122;6.840;2023-11-19T06:42:40;15.30;;;3.73;;
6019;SDS011;3038;51.122;6.840;2023-11-19T06:45:06;15.70;;;4.30;;
6019;SDS011;3038;51.122;6.840;2023-11-19T06:47:31;10.47;;;3.53;;
6019;SDS011;3038;51.122;6.840;2023-11-19T06:49:57;9.40;;;4.03;;
6019;SDS011;3038;51.122;6.840;2023-11-19T06:52:23;15.03;;;3.40;;
6019;SDS011;3038;51.122;6.840;2023-11-19T06:54:49;12.47;;;3.03;;
6019;SDS011;3038;51.122;6.840;2023-11-19T06:57:16;13.93;;;3.97;;
6019;SDS011;3038;51.122;6.840;2023-11-19T06:59:42;13.00;;;3.37;;
6019;SDS011;3038;51.122;6.840;2023-11-19T07:02:07;16.97;;;5.37;;
6019;SDS011;3038;51.122;6.840;2023-11-19T07:04:33;12.33;;;4.00;;
6019;SDS011;3038;51.122;6.840;2023-11-19T07:07:01;16.93;;;3.63;;
6019;SDS011;3038;51.122;6.840;2023-11-19T07:09:26;16.27;;;4.50;;
6019;SDS011;3038;51.122;6.840;2023-11-19T07:11:52;13.20;;;3.83;;
6019;SDS011;3038;51.122;6.840;2023-11-19T07:14:19;13.93;;;4.40;;
6019;SDS011;3038;51.122;6.840;2023-11-19T07:16:47;19.30;;;4.47;;
6019;SDS011;3038;51.122;6.840;2023-11-19T07:19:12;18.03;;;4.60;;
6019;SDS011;3038;51.122;6.840;2023-11-19T07:21:40;10.40;;;4.20;;
6019;SDS011;3038;51.122;6.840;2023-11-19T07:24:11;21.40;;;5.43;;
6019;SDS011;3038;51.122;6.840;2023-11-19T07:26:41;16.50;;;4.80;;
6019;SDS011;3038;51.122;6.840;2023-11-19T07:29:08;16.17;;;3.87;;
6019;SDS011;3038;51.122;6.840;2023-11-19T07:31:34;8.87;;;3.80;;
6019;SDS011;3038;51.122;6.840;2023-11-19T07:33:59;9.13;;;3.63;;
6019;SDS011;3038;51.122;6.840;2023-11-19T07:36:27;21.17;;;4.70;;
6019;SDS011;3038;51.122;6.840;2023-11-19T07:38:52;13.60;;;5.60;;
6019;SDS011;3038;51.122;6.840;2023-11-19T07:41:18;16.10;;;4.40;;
6019;SDS011;3038;51.122;6.840;2023-11-19T07:43:45;14.50;;;4.10;;
6019;SDS011;3038;51.122;6.840;2023-11-19T07:46:11;16.43;;;3.93;;
6019;SDS011;3038;51.122;6.840;2023-11-19T07:48:40;14.40;;;3.47;;
6019;SDS011;3038;51.122;6.840;2023-11-19T07:51:07;14.80;;;3.93;;
6019;SDS011;3038;51.122;6.840;2023-11-19T07:53:33;14.10;;;4.27;;
6019;SDS011;3038;51.122;6.840;2023-11-19T07:55:58;12.07;;;3.90;;
6019;SDS011;3038;51.122;6.840;2023-11-19T07:58:26;17.20;;;4.87;;
6019;SDS011;3038;51.122;6.840;2023-11-19T08:00:52;12.23;;;3.87;;
6019;SDS011;3038;51.122;6.840;2023-11-19T08:03:17;8.70;;;3.57;;
6019;SDS011;3038;51.122;6.840;2023-11-19T08:05:46;16.23;;;5.03;;
6019;SDS011;3038;51.122;6.840;2023-11-19T08:08:12;9.03;;;3.40;;
6019;SDS011;3038;51.122;6.840;2023-11-19T08:10:37;10.00;;;4.00;;
6019;SDS011;3038;51.122;6.840;2023-11-19T08:13:08;12.73;;;3.73;;
6019;SDS011;3038;51.122;6.840;2023-11-19T08:15:36;15.73;;;3.80;;
6019;SDS011;3038;51.122;6.840;2023-11-19T08:18:01;18.63;;;4.37;;
6019;SDS011;3038;51.122;6.840;2023-11-19T08:20:27;14.60;;;4.93;;
6019;SDS011;3038;51.122;6.840;2023-11-19T08:22:52;21.13;;;6.10;;
6019;SDS011;3038;51.122;6.840;2023-11-19T08:25:17;18.27;;;4.70;;
6019;SDS011;3038;51.122;6.840;2023-11-19T08:27:43;22.60;;;4.73;;
6019;SDS011;3038;51.122;6.840;2023-11-19T08:30:08;15.40;;;5.40;;
6019;SDS011;3038;51.122;6.840;2023-11-19T08:32:36;13.33;;;4.17;;
6019;SDS011;3038;51.122;6.840;2023-11-19T08:35:02;10.03;;;3.27;;
6019;SDS011;3038;51.122;6.840;2023-11-19T08:37:27;10.40;;;3.53;;
6019;SDS011;3038;51.122;6.840;2023-11-19T08:39:55;11.50;;;3.77;;
6019;SDS011;3038;51.122;6.840;2023-11-19T08:42:20;14.83;;;4.23;;
6019;SDS011;3038;51.122;6.840;2023-11-19T08:44:49;11.93;;;4.43;;
6019;SDS011;3038;51.122;6.840;2023-11-19T08:47:15;17.63;;;5.00;;
6019;SDS011;3038;51.122;6.840;2023-11-19T08:49:44;14.70;;;5.03;;
6019;SDS011;3038;51.122;6.840;2023-11-19T08:52:10;10.20;;;5.00;;
6019;SDS011;3038;51.122;6.840;2023-11-19T08:54:36;19.47;;;5.40;;
6019;SDS011;3038;51.122;6.840;2023-11-19T08:57:02;16.67;;;4.87;;
6019;SDS011;3038;51.122;6.840;2023-11-19T08:59:28;14.67;;;4.20;;
6019;SDS011;3038;51.122;6.840;2023-11-19T09:01:54;13.17;;;3.43;;
6019;SDS011;3038;51.122;6.840;2023-11-19T09:04:19;17.37;;;4.23;;
6019;SDS011;3038;51.122;6.840;2023-11-19T09:06:47;13.80;;;3.63;;
6019;SDS011;3038;51.122;6.840;2023-11-19T09:09:12;16.13;;;4.53;;
6019;SDS011;3038;51.122;6.840;2023-11-19T09:11:37;17.50;;;5.50;;
6019;SDS011;3038;51.122;6.840;2023-11-19T09:14:03;18.70;;;4.80;;
6019;SDS011;3038;51.122;6.840;2023-11-19T09:16:29;16.43;;;4.20;;
6019;SDS011;3038;51.122;6.840;2023-11-19T09:18:54;16.37;;;4.73;;
6019;SDS011;3038;51.122;6.840;2023-11-19T09:21:20;16.10;;;4.63;;
6019;SDS011;3038;51.122;6.840;2023-11-19T09:23:45;13.30;;;4.37;;
6019;SDS011;3038;51.122;6.840;2023-11-19T09:26:13;15.97;;;3.97;;
6019;SDS011;3038;51.122;6.840;2023-11-19T09:28:38;18.00;;;4.80;;
6019;SDS011;3038;51.122;6.840;2023-11-19T09:31:12;17.27;;;3.63;;
6019;SDS011;3038;51.122;6.840;2023-11-19T09:33:38;18.83;;;5.03;;
6019;SDS011;3038;51.122;6.840;2023-11-19T09:36:03;7.60;;;2.97;;
6019;SDS011;3038;51.122;6.840;2023-11-19T09:38:29;15.63;;;5.03;;
6019;SDS011;3038;51.122;6.840;2023-11-19T09:40:54;18.37;;;5.37;;
6019;SDS011;3038;51.122;6.840;2023-11-19T09:43:20;12.40;;;4.97;;
6019;SDS011;3038;51.122;6.840;2023-11-19T09:45:49;18.87;;;7.30;;
6019;SDS011;3038;51.122;6.840;2023-11-19T09:48:18;23.17;;;4.97;;
6019;SDS011;3038;51.122;6.840;2023-11-19T09:50:46;17.50;;;6.43;;
6019;SDS011;3038;51.122;6.840;2023-11-19T09:53:13;15.87;;;6.00;;
6019;SDS011;3038;51.122;6.840;2023-11-19T09:55:39;12.77;;;3.90;;
6019;SDS011;3038;51.122;6.840;2023-11-19T09:58:06;16.50;;;5.33;;
6019;SDS011;3038;51.122;6.840;2023-11-19T10:00:32;14.03;;;4.50;;
6019;SDS011;3038;51.122;6.840;2023-11-19T10:02:59;10.80;;;3.10;;
6019;SDS011;3038;51.122;6.840;2023-11-19T10:05:25;14.97;;;4.40;;
6019;SDS011;3038;51.122;6.840;2023-11-19T10:07:51;13.57;;;4.27;;
6019;SDS011;3038;51.122;6.840;2023-11-19T10:10:16;10.77;;;4.27;;
6019;SDS011;3038;51.122;6.840;2023-11-19T10:12:44;12.90;;;4.20;;
6019;SDS011;3038;51.122;6.840;2023-11-19T10:15:17;15.97;;;5.37;;
6019;SDS011;3038;51.122;6.840;2023-11-19T10:17:46;9.10;;;4.43;;
6019;SDS011;3038;51.122;6.840;2023-11-19T10:20:11;10.60;;;3.63;;
6019;SDS011;3038;51.122;6.840;2023-11-19T10:22:37;16.60;;;5.07;;
6019;SDS011;3038;51.122;6.840;2023-11-19T10:25:03;17.07;;;4.10;;
6019;SDS011;3038;51.122;6.840;2023-11-19T10:27:29;15.80;;;4.60;;
6019;SDS011;3038;51.122;6.840;2023-11-19T10:29:57;14.83;;;4.43;;
6019;SDS011;3038;51.122;6.840;2023-11-19T10:32:24;16.40;;;5.40;;
6019;SDS011;3038;51.122;6.840;2023-11-19T10:34:52;17.90;;;4.23;;
6019;SDS011;3038;51.122;6.840;2023-11-19T10:37:27;11.30;;;3.93;;
6019;SDS011;3038;51.122;6.840;2023-11-19T10:39:54;17.10;;;3.67;;
6019;SDS011;3038;51.122;6.840;2023-11-19T10:42:20;13.87;;;4.60;;
6019;SDS011;3038;51.122;6.840;2023-11-19T10:44:46;15.47;;;5.23;;
6019;SDS011;3038;51.122;6.840;2023-11-19T10:47:11;13.60;;;4.30;;
6019;SDS011;3038;51.122;6.840;2023-11-19T10:49:38;13.53;;;3.73;;
6019;SDS011;3038;51.122;6.840;2023-11-19T10:52:05;16.67;;;4.60;;
6019;SDS011;3038;51.122;6.840;2023-11-19T10:54:37;19.13;;;4.93;;
6019;SDS011;3038;51.122;6.840;2023-11-19T10:57:12;17.40;;;4.10;;
6019;SDS011;3038;51.122;6.840;2023-11-19T10:59:44;14.63;;;4.50;;
6019;SDS011;3038;51.122;6.840;2023-11-19T11:02:11;14.43;;;4.40;;
6019;SDS011;3038;51.122;6.840;2023-11-19T11:04:44;13.87;;;4.10;;
6019;SDS011;3038;51.122;6.840;2023-11-19T11:07:12;13.23;;;4.23;;
6019;SDS011;3038;51.122;6.840;2023-11-19T11:09:41;13.17;;;4.33;;
6019;SDS011;3038;51.122;6.840;2023-11-19T11:12:09;14.70;;;3.70;;
6019;SDS011;3038;51.122;6.840;2023-11-19T11:14:36;14.77;;;3.53;;
6019;SDS011;3038;51.122;6.840;2023-11-19T11:17:03;15.83;;;3.20;;
6019;SDS011;3038;51.122;6.840;2023-11-19T11:19:32;8.67;;;4.17;;
6019;SDS011;3038;51.122;6.840;2023-11-19T11:21:59;9.43;;;3.77;;
6019;SDS011;3038;51.122;6.840;2023-11-19T11:32:32;14.63;;;4.60;;
6019;SDS011;3038;51.122;6.840;2023-11-19T11:37:56;12.37;;;4.67;;
6019;SDS011;3038;51.122;6.840;2023-11-19T11:40:28;9.17;;;4.17;;
6019;SDS011;3038;51.122;6.840;2023-11-19T11:42:53;10.77;;;4.13;;
6019;SDS011;3038;51.122;6.840;2023-11-19T11:45:19;9.87;;;3.50;;
6019;SDS011;3038;51.122;6.840;2023-11-19T11:48:04;10.73;;;3.17;;
6019;SDS011;3038;51.122;6.840;2023-11-19T11:50:34;9.17;;;4.17;;
6019;SDS011;3038;51.122;6.840;2023-11-19T11:58:21;9.20;;;3.00;;
6019;SDS011;3038;51.122;6.840;2023-11-19T12:00:59;12.17;;;3.63;;
6019;SDS011;3038;51.122;6.840;2023-11-19T12:03:30;10.43;;;5.10;;
6019;SDS011;3038;51.122;6.840;2023-11-19T12:05:57;9.93;;;3.77;;
6019;SDS011;3038;51.122;6.840;2023-11-19T12:08:25;11.60;;;3.43;;
6019;SDS011;3038;51.122;6.840;2023-11-19T12:10:52;7.87;;;2.93;;
6019;SDS011;3038;51.122;6.840;2023-11-19T12:13:23;12.10;;;4.10;;
6019;SDS011;3038;51.122;6.840;2023-11-19T12:18:23;23.37;;;4.53;;
6019;SDS011;3038;51.122;6.840;2023-11-19T12:20:51;11.77;;;4.03;;
6019;SDS011;3038;51.122;6.840;2023-11-19T12:23:16;8.80;;;3.47;;
6019;SDS011;3038;51.122;6.840;2023-11-19T12:25:44;9.90;;;3.60;;
6019;SDS011;3038;51.122;6.840;2023-11-19T12:28:12;13.17;;;3.93;;
6019;SDS011;3038;51.122;6.840;2023-11-19T12:30:41;12.27;;;3.50;;
6019;SDS011;3038;51.122;6.840;2023-11-19T12:33:10;14.87;;;3.87;;
6019;SDS011;3038;51.122;6.840;2023-11-19T12:35:39;9.57;;;3.97;;
6019;SDS011;3038;51.122;6.840;2023-11-19T12:38:05;8.40;;;3.20;;
6019;SDS011;3038;51.122;6.840;2023-11-19T12:40:31;12.63;;;3.80;;
6019;SDS011;3038;51.122;6.840;2023-11-19T12:42:56;12.40;;;3.73;;
6019;SDS011;3038;51.122;6.840;2023-11-19T12:45:22;14.10;;;4.30;;
6019;SDS011;3038;51.122;6.840;2023-11-19T12:48:09;16.03;;;4.77;;
6019;SDS011;3038;51.122;6.840;2023-11-19T12:53:21;7.43;;;4.97;;
6019;SDS011;3038;51.122;6.840;2023-11-19T12:55:48;11.00;;;4.47;;
6019;SDS011;3038;51.122;6.840;2023-11-19T12:58:29;15.00;;;3.73;;
6019;SDS011;3038;51.122;6.840;2023-11-19T13:01:02;13.43;;;4.60;;
6019;SDS011;3038;51.122;6.840;2023-11-19T13:03:29;14.43;;;4.57;;
6019;SDS011;3038;51.122;6.840;2023-11-19T13:06:00;11.53;;;3.60;;
6019;SDS011;3038;51.122;6.840;2023-11-19T13:08:27;18.53;;;3.80;;
6019;SDS011;3038;51.122;6.840;2023-11-19T13:10:55;10.00;;;3.70;;
6019;SDS011;3038;51.122;6.840;2023-11-19T13:13:22;9.03;;;4.00;;
6019;SDS011;3038;51.122;6.840;2023-11-19T13:15:48;12.77;;;3.70;;
6019;SDS011;3038;51.122;6.840;2023-11-19T13:18:15;9.47;;;3.20;;
6019;SDS011;3038;51.122;6.840;2023-11-19T13:20:41;6.47;;;2.50;;
6019;SDS011;3038;51.122;6.840;2023-11-19T13:23:07;16.33;;;4.30;;
6019;SDS011;3038;51.122;6.840;2023-11-19T13:25:32;10.97;;;3.00;;
6019;SDS011;3038;51.122;6.840;2023-11-19T13:27:58;13.97;;;3.43;;
6019;SDS011;3038;51.122;6.840;2023-11-19T13:30:24;14.70;;;4.20;;
6019;SDS011;3038;51.122;6.840;2023-11-19T13:32:51;11.43;;;2.80;;
6019;SDS011;3038;51.122;6.840;2023-11-19T13:35:17;11.87;;;4.10;;
6019;SDS011;3038;51.122;6.840;2023-11-19T13:37:45;8.47;;;3.20;;
6019;SDS011;3038;51.122;6.840;2023-11-19T13:40:11;11.03;;;3.10;;
6019;SDS011;3038;51.122;6.840;2023-11-19T13:42:43;14.57;;;3.63;;
6019;SDS011;3038;51.122;6.840;2023-11-19T13:45:09;16.63;;;3.43;;
6019;SDS011;3038;51.122;6.840;2023-11-19T13:47:37;13.13;;;4.07;;
6019;SDS011;3038;51.122;6.840;2023-11-19T13:50:07;11.00;;;3.83;;
6019;SDS011;3038;51.122;6.840;2023-11-19T13:52:34;10.17;;;3.70;;
6019;SDS011;3038;51.122;6.840;2023-11-19T13:54:59;9.53;;;3.67;;
6019;SDS011;3038;51.122;6.840;2023-11-19T13:57:25;11.43;;;3.90;;
6019;SDS011;3038;51.122;6.840;2023-11-19T13:59:50;16.50;;;3.60;;
6019;SDS011;3038;51.122;6.840;2023-11-19T14:02:18;7.63;;;2.83;;
6019;SDS011;3038;51.122;6.840;2023-11-19T14:04:44;17.40;;;5.80;;
6019;SDS011;3038;51.122;6.840;2023-11-19T14:07:09;12.60;;;3.47;;
6019;SDS011;3038;51.122;6.840;2023-11-19T14:09:34;11.03;;;4.77;;
6019;SDS011;3038;51.122;6.840;2023-11-19T14:12:00;12.50;;;3.80;;
6019;SDS011;3038;51.122;6.840;2023-11-19T14:14:25;16.90;;;3.30;;
6019;SDS011;3038;51.122;6.840;2023-11-19T14:16:50;15.73;;;3.90;;
6019;SDS011;3038;51.122;6.840;2023-11-19T14:19:16;13.37;;;3.10;;
6019;SDS011;3038;51.122;6.840;2023-11-19T14:21:44;9.17;;;3.33;;
6019;SDS011;3038;51.122;6.840;2023-11-19T14:24:12;9.23;;;2.63;;
6019;SDS011;3038;51.122;6.840;2023-11-19T14:26:38;12.57;;;4.27;;
6019;SDS011;3038;51.122;6.840;2023-11-19T14:29:03;17.03;;;3.80;;
6019;SDS011;3038;51.122;6.840;2023-11-19T14:31:29;17.33;;;4.30;;
6019;SDS011;3038;51.122;6.840;2023-11-19T14:33:54;22.00;;;5.40;;
6019;SDS011;3038;51.122;6.840;2023-11-19T14:36:20;12.37;;;3.70;;
6019;SDS011;3038;51.122;6.840;2023-11-19T14:38:45;12.73;;;3.63;;
6019;SDS011;3038;51.122;6.840;2023-11-19T14:41:11;13.53;;;3.70;;
6019;SDS011;3038;51.122;6.840;2023-11-19T14:43:36;9.97;;;4.23;;
6019;SDS011;3038;51.122;6.840;2023-11-19T14:46:01;4.30;;;2.30;;
6019;SDS011;3038;51.122;6.840;2023-11-19T14:48:28;9.10;;;2.67;;
6019;SDS011;3038;51.122;6.840;2023-11-19T14:50:53;13.53;;;3.93;;
6019;SDS011;3038;51.122;6.840;2023-11-19T14:53:19;9.33;;;3.03;;
6019;SDS011;3038;51.122;6.840;2023-11-19T14:55:45;7.50;;;2.40;;
6019;SDS011;3038;51.122;6.840;2023-11-19T14:58:10;14.03;;;3.97;;
6019;SDS011;3038;51.122;6.840;2023-11-19T15:00:38;11.13;;;3.30;;
6019;SDS011;3038;51.122;6.840;2023-11-19T15:03:03;9.33;;;2.70;;
6019;SDS011;3038;51.122;6.840;2023-11-19T15:05:28;12.83;;;3.40;;
6019;SDS011;3038;51.122;6.840;2023-11-19T15:07:54;9.73;;;2.40;;
6019;SDS011;3038;51.122;6.840;2023-11-19T15:10:20;15.70;;;4.83;;
6019;SDS011;3038;51.122;6.840;2023-11-19T15:12:48;6.93;;;2.97;;
6019;SDS011;3038;51.122;6.840;2023-11-19T15:15:13;10.30;;;3.60;;
6019;SDS011;3038;51.122;6.840;2023-11-19T15:17:39;17.67;;;3.97;;
6019;SDS011;3038;51.122;6.840;2023-11-19T15:20:04;11.97;;;4.50;;
6019;SDS011;3038;51.122;6.840;2023-11-19T15:22:30;10.47;;;3.63;;
6019;SDS011;3038;51.122;6.840;2023-11-19T15:24:56;9.73;;;3.23;;
6019;SDS011;3038;51.122;6.840;2023-11-19T15:27:21;6.70;;;4.03;;